Time;durP1;ratioP1;P1;durP2;ratioP2;P2;SDS_P1;SDS_P2;PMS_P1;PMS_P2;Temp;Humidity;BMP_temperature;BMP_pressure;BME280_temperature;BME280_humidity;BME280_pressure;Samples;Min_cycle;Max_cycle;Signal;HPM_P1;HPM_P2
2021/06/21 00:00:37;;;;;;;7.22;1.08;;;19.60;90.10;;;;;;6218640;23;20095;-80
2021/06/21 00:03:05;;;;;;;9.07;1.30;;;19.60;90.10;;;;;;6218057;23;20082;-81
2021/06/21 00:05:40;;;;;;;5.10;1.23;;;19.60;90.20;;;;;;6220352;23;20027;-81
2021/06/21 00:08:07;;;;;;;2.17;0.75;;;19.60;90.20;;;;;;6221826;23;20055;-81
2021/06/21 00:10:34;;;;;;;4.47;0.88;;;19.60;89.90;;;;;;6223061;23;20017;-81
2021/06/21 00:13:02;;;;;;;5.55;1.65;;;19.60;90.00;;;;;;6225626;23;20296;-80
2021/06/21 00:15:30;;;;;;;3.35;0.82;;;19.60;90.00;;;;;;6219259;23;20240;-81
2021/06/21 00:17:57;;;;;;;5.07;0.90;;;19.50;90.00;;;;;;6219840;23;20051;-81
2021/06/21 00:20:26;;;;;;;5.45;1.08;;;19.50;90.20;;;;;;6220997;23;20024;-81
2021/06/21 00:22:56;;;;;;;4.75;1.10;;;19.40;90.70;;;;;;6221957;23;20016;-80
2021/06/21 00:25:25;;;;;;;1.73;0.80;;;19.40;91.20;;;;;;6218856;23;20036;-81
2021/06/21 00:27:52;;;;;;;3.65;0.90;;;19.40;91.10;;;;;;6218614;23;20239;-81
2021/06/21 00:30:22;;;;;;;3.15;0.68;;;19.50;90.80;;;;;;6218942;23;20036;-82
2021/06/21 00:32:50;;;;;;;3.72;1.00;;;19.40;90.60;;;;;;6219166;23;20028;-82
2021/06/21 00:35:18;;;;;;;3.40;0.75;;;19.30;90.80;;;;;;6216932;23;20029;-81
2021/06/21 00:37:46;;;;;;;5.13;1.50;;;19.30;90.40;;;;;;6217802;23;20216;-81
2021/06/21 00:40:17;;;;;;;2.17;0.70;;;19.20;90.20;;;;;;6220571;23;20024;-81
2021/06/21 00:42:47;;;;;;;4.22;0.68;;;19.10;90.90;;;;;;6219231;23;20075;-81
2021/06/21 00:45:18;;;;;;;2.13;1.02;;;19.10;91.30;;;;;;6220053;23;20071;-81
2021/06/21 00:47:47;;;;;;;2.28;0.70;;;19.00;90.90;;;;;;6218346;23;20024;-81
2021/06/21 00:50:15;;;;;;;4.28;0.70;;;19.10;90.10;;;;;;6215586;23;20171;-81
2021/06/21 00:52:43;;;;;;;2.65;1.02;;;19.00;90.60;;;;;;6219643;23;20016;-79
2021/06/21 00:55:16;;;;;;;2.85;0.82;;;18.80;91.00;;;;;;6217546;23;20020;-81
2021/06/21 00:57:43;;;;;;;2.53;0.80;;;18.70;91.10;;;;;;6219385;23;20219;-81
2021/06/21 01:00:12;;;;;;;4.28;1.02;;;18.70;91.20;;;;;;6211860;23;20032;-81
2021/06/21 01:02:43;;;;;;;4.05;1.10;;;18.60;91.20;;;;;;6216456;23;20043;-80
2021/06/21 01:05:13;;;;;;;5.00;1.00;;;18.60;91.10;;;;;;6221062;23;20021;-81
2021/06/21 01:07:40;;;;;;;;;;;18.60;90.50;;;;;;6221021;23;20028;-81
2021/06/21 01:10:10;;;;;;;5.60;1.05;;;18.60;90.10;;;;;;6245847;23;19955;-81
2021/06/21 01:12:51;;;;;;;5.72;1.02;;;18.60;90.80;;;;;;6222795;23;20310;-79
2021/06/21 01:15:22;;;;;;;6.13;0.93;;;18.70;90.30;;;;;;6220451;23;20028;-80
2021/06/21 01:17:53;;;;;;;4.82;0.80;;;18.80;90.60;;;;;;6222058;23;20016;-80
2021/06/21 01:20:45;;;;;;;8.25;1.67;;;18.80;90.30;;;;;;6245026;23;20074;-80
2021/06/21 01:23:52;;;;;;;3.90;0.75;;;18.70;90.30;;;;;;6217635;23;20032;-80
2021/06/21 01:26:23;;;;;;;4.70;0.90;;;18.90;91.20;;;;;;6221584;23;20020;-80
2021/06/21 01:29:14;;;;;;;2.60;0.85;;;19.00;91.10;;;;;;6246351;23;20216;-80
2021/06/21 01:31:51;;;;;;;3.08;0.63;;;19.10;90.80;;;;;;6219967;23;20201;-80
2021/06/21 01:34:22;;;;;;;3.40;0.68;;;19.00;90.00;;;;;;6220878;23;20020;-80
2021/06/21 01:36:53;;;;;;;4.93;0.70;;;19.00;89.90;;;;;;6223396;23;20029;-80
2021/06/21 01:39:21;;;;;;;3.55;0.60;;;19.00;90.10;;;;;;6222689;23;20320;-80
2021/06/21 01:41:53;;;;;;;4.97;0.68;;;19.00;90.40;;;;;;6220806;23;20012;-80
2021/06/21 01:44:25;;;;;;;3.75;0.88;;;19.10;90.80;;;;;;6221559;23;20016;-80
2021/06/21 01:46:52;;;;;;;1.88;0.70;;;19.00;90.00;;;;;;6222528;23;20080;-80
2021/06/21 01:49:24;;;;;;;2.67;0.70;;;19.00;90.00;;;;;;6221541;23;20040;-80
2021/06/21 01:51:59;;;;;;;2.50;0.90;;;18.90;90.00;;;;;;6225463;23;20024;-81
2021/06/21 01:54:32;;;;;;;2.30;1.25;;;18.90;90.50;;;;;;6250093;23;20036;-80
2021/06/21 01:57:03;;;;;;;3.78;0.80;;;18.90;90.30;;;;;;6226371;23;20017;-80
2021/06/21 01:59:31;;;;;;;2.60;0.63;;;19.00;90.60;;;;;;6224742;23;20024;-80
2021/06/21 02:02:01;;;;;;;6.95;0.98;;;19.00;90.50;;;;;;6220153;23;20009;-81
2021/06/21 02:04:32;;;;;;;2.03;0.75;;;18.90;90.60;;;;;;6223925;23;20252;-80
2021/06/21 02:07:02;;;;;;;2.72;1.20;;;19.00;90.50;;;;;;6217580;23;20035;-80
2021/06/21 02:09:34;;;;;;;3.58;0.82;;;19.00;90.70;;;;;;6243550;23;20021;-81
2021/06/21 02:12:03;;;;;;;3.55;0.95;;;18.90;91.00;;;;;;6243387;23;20016;-80
2021/06/21 02:14:32;;;;;;;2.08;0.55;;;18.80;91.20;;;;;;6219847;23;20024;-80
2021/06/21 02:17:00;;;;;;;2.65;0.65;;;18.80;91.30;;;;;;6220372;23;20020;-80
2021/06/21 02:19:31;;;;;;;5.53;1.07;;;18.80;91.60;;;;;;6219974;23;20020;-80
2021/06/21 02:22:01;;;;;;;5.57;2.05;;;18.90;91.50;;;;;;6219814;23;20024;-80
2021/06/21 02:24:30;;;;;;;3.55;0.90;;;18.90;91.10;;;;;;6220987;23;20032;-80
2021/06/21 02:26:59;;;;;;;3.25;0.70;;;18.90;91.30;;;;;;6220033;23;20074;-79
2021/06/21 02:29:28;;;;;;;5.03;0.80;;;18.80;91.30;;;;;;6220178;23;20198;-79
2021/06/21 02:31:56;;;;;;;2.37;0.90;;;18.70;91.40;;;;;;6242108;23;20044;-79
2021/06/21 02:34:24;;;;;;;5.50;2.30;;;18.60;91.00;;;;;;6218317;23;20497;-79
2021/06/21 02:36:54;;;;;;;5.05;0.90;;;18.60;91.30;;;;;;6219159;23;20028;-80
2021/06/21 02:39:22;;;;;;;3.03;0.80;;;18.60;91.30;;;;;;6243098;23;20032;-80
2021/06/21 02:41:49;;;;;;;1.60;0.52;;;18.60;91.40;;;;;;6223162;23;20032;-80
2021/06/21 02:44:16;;;;;;;2.42;0.65;;;18.60;91.50;;;;;;6224892;23;20047;-81
2021/06/21 02:46:43;;;;;;;5.40;0.93;;;18.50;91.50;;;;;;6221397;23;20028;-80
2021/06/21 02:49:11;;;;;;;4.97;1.10;;;18.50;91.60;;;;;;6216861;23;20036;-80
2021/06/21 02:51:44;;;;;;;3.15;0.88;;;18.40;91.40;;;;;;6218441;23;20020;-80
2021/06/21 02:54:17;;;;;;;3.35;1.00;;;18.40;92.00;;;;;;6220910;23;20024;-80
2021/06/21 02:56:49;;;;;;;3.17;0.88;;;18.30;92.00;;;;;;6221524;23;20017;-80
2021/06/21 02:59:20;;;;;;;5.50;1.10;;;18.30;91.90;;;;;;6218751;23;20120;-80
2021/06/21 03:01:52;;;;;;;8.27;1.02;;;18.30;92.00;;;;;;6215951;23;20040;-80
2021/06/21 03:04:21;;;;;;;3.63;1.02;;;18.20;91.90;;;;;;6221597;23;20035;-80
2021/06/21 03:06:50;;;;;;;8.13;0.95;;;18.20;91.90;;;;;;6222126;23;20256;-79
2021/06/21 03:09:20;;;;;;;2.15;0.75;;;18.20;92.20;;;;;;6225342;23;20016;-79
2021/06/21 03:11:52;;;;;;;3.40;1.15;;;18.20;92.00;;;;;;6226037;23;20024;-80
2021/06/21 03:14:24;;;;;;;7.13;1.77;;;18.10;92.00;;;;;;6221170;23;20075;-80
2021/06/21 03:16:54;;;;;;;2.95;0.88;;;18.10;92.20;;;;;;6221227;23;20023;-80
2021/06/21 03:19:24;;;;;;;2.95;1.05;;;18.10;92.10;;;;;;6220255;23;20103;-80
2021/06/21 03:21:52;;;;;;;3.42;1.35;;;18.00;92.00;;;;;;6217470;23;20036;-79
2021/06/21 03:24:24;;;;;;;3.08;1.40;;;18.00;91.90;;;;;;6220638;23;20185;-79
2021/06/21 03:26:52;;;;;;;5.68;1.23;;;17.90;91.80;;;;;;6218937;23;20021;-80
2021/06/21 03:29:20;;;;;;;2.60;1.30;;;17.90;91.50;;;;;;6224094;23;20256;-79
2021/06/21 03:31:50;;;;;;;4.15;1.48;;;17.90;91.50;;;;;;6219805;23;20020;-79
2021/06/21 03:34:19;;;;;;;5.05;1.17;;;17.90;91.60;;;;;;6220728;23;20013;-79
2021/06/21 03:36:46;;;;;;;6.32;1.15;;;17.90;91.40;;;;;;6220857;23;20024;-80
2021/06/21 03:39:14;;;;;;;2.22;1.00;;;17.90;91.50;;;;;;6218829;23;20066;-79
2021/06/21 03:41:43;;;;;;;5.18;1.40;;;17.90;91.60;;;;;;6221560;23;20151;-79
2021/06/21 03:44:12;;;;;;;3.65;1.23;;;17.90;91.50;;;;;;6221786;23;20036;-80
2021/06/21 03:46:39;;;;;;;4.00;1.88;;;17.90;91.40;;;;;;6218551;23;20028;-79
2021/06/21 03:49:06;;;;;;;3.42;1.50;;;17.90;91.30;;;;;;6221266;23;20074;-79
2021/06/21 03:51:33;;;;;;;5.70;1.40;;;17.90;91.30;;;;;;6245441;23;20028;-79
2021/06/21 03:54:01;;;;;;;3.05;1.30;;;17.90;91.10;;;;;;6219123;23;20035;-79
2021/06/21 03:56:30;;;;;;;2.20;1.23;;;18.00;91.20;;;;;;6215232;23;20256;-79
2021/06/21 03:58:59;;;;;;;1.07;0.73;;;18.00;90.90;;;;;;6217980;23;20025;-78
2021/06/21 04:01:26;;;;;;;2.40;1.08;;;18.00;91.10;;;;;;6214826;23;20044;-80
2021/06/21 04:03:59;;;;;;;5.80;1.55;;;18.00;91.10;;;;;;6218882;23;20035;-79
2021/06/21 04:06:26;;;;;;;2.00;0.98;;;18.00;91.20;;;;;;6217602;23;20036;-79
2021/06/21 04:08:53;;;;;;;7.03;1.58;;;18.10;91.00;;;;;;6220315;23;20316;-80
2021/06/21 04:11:26;;;;;;;3.42;2.05;;;18.00;90.60;;;;;;6217156;23;20075;-79
2021/06/21 04:13:54;;;;;;;4.53;1.88;;;18.00;90.90;;;;;;6218151;23;20209;-80
2021/06/21 04:16:24;;;;;;;4.40;1.48;;;18.10;90.90;;;;;;6217558;23;20075;-80
2021/06/21 04:18:52;;;;;;;3.63;1.98;;;18.00;90.90;;;;;;6218918;23;20118;-80
2021/06/21 04:21:20;;;;;;;3.05;1.73;;;18.00;91.20;;;;;;6217467;23;20252;-79
2021/06/21 04:23:47;;;;;;;5.03;2.17;;;18.10;91.30;;;;;;6218092;23;20358;-80
2021/06/21 04:26:15;;;;;;;5.05;1.70;;;18.00;91.40;;;;;;6217614;23;20044;-80
2021/06/21 04:28:43;;;;;;;6.78;2.33;;;18.00;91.70;;;;;;6222148;23;20221;-79
2021/06/21 04:31:11;;;;;;;7.72;1.98;;;18.10;91.70;;;;;;6220707;23;20017;-79
2021/06/21 04:33:39;;;;;;;5.32;2.47;;;18.10;91.60;;;;;;6222643;23;20059;-80
2021/06/21 04:36:08;;;;;;;9.00;3.10;;;18.10;91.60;;;;;;6221685;23;20028;-80
2021/06/21 04:38:35;;;;;;;5.07;2.90;;;18.20;91.70;;;;;;6220207;23;20028;-80
2021/06/21 04:41:02;;;;;;;7.28;2.40;;;18.30;91.30;;;;;;6221624;23;20029;-81
2021/06/21 04:43:30;;;;;;;7.00;2.25;;;18.40;91.00;;;;;;6222964;23;20028;-80
2021/06/21 04:45:58;;;;;;;6.75;2.83;;;18.50;90.70;;;;;;6221498;23;20028;-82
2021/06/21 04:48:43;;;;;;;8.38;2.55;;;18.60;90.60;;;;;;3517655;22;10002346;-80
2021/06/21 04:51:11;;;;;;;7.30;2.58;;;18.80;89.70;;;;;;4073779;23;10001093;-81
2021/06/21 04:53:38;;;;;;;7.15;2.60;;;18.90;89.80;;;;;;6225184;23;20464;-80
2021/06/21 04:56:06;;;;;;;6.10;2.30;;;19.10;89.30;;;;;;6224935;23;20028;-80
2021/06/21 04:58:35;;;;;;;6.57;2.25;;;19.00;89.10;;;;;;6248438;23;20028;-80
2021/06/21 05:01:03;;;;;;;6.35;2.25;;;19.20;88.50;;;;;;6218637;23;20031;-81
2021/06/21 05:03:31;;;;;;;4.88;2.03;;;19.30;88.20;;;;;;6222984;23;20389;-79
2021/06/21 05:06:00;;;;;;;4.20;2.15;;;19.30;88.40;;;;;;6224766;23;20013;-80
2021/06/21 05:08:31;;;;;;;4.50;2.40;;;19.60;87.20;;;;;;6224140;23;20042;-80
2021/06/21 05:10:58;;;;;;;8.05;2.50;;;19.60;87.20;;;;;;6223940;23;20055;-81
2021/06/21 05:13:28;;;;;;;7.28;2.28;;;19.60;87.00;;;;;;6225516;23;20016;-81
2021/06/21 05:15:55;;;;;;;3.72;1.92;;;19.50;87.30;;;;;;6223506;23;20016;-81
2021/06/21 05:18:22;;;;;;;4.82;1.85;;;19.60;86.50;;;;;;6222202;23;20059;-81
2021/06/21 05:20:50;;;;;;;7.32;1.83;;;19.70;87.40;;;;;;6222782;23;20024;-80
2021/06/21 05:23:19;;;;;;;3.28;1.20;;;19.80;86.10;;;;;;6222463;23;20028;-81
2021/06/21 05:25:47;;;;;;;5.22;1.55;;;19.80;84.40;;;;;;6222306;23;20024;-80
2021/06/21 05:28:15;;;;;;;5.93;2.22;;;20.00;84.50;;;;;;6220806;23;20024;-79
2021/06/21 05:30:42;;;;;;;7.60;1.77;;;20.00;84.90;;;;;;6219645;23;20025;-81
2021/06/21 05:33:09;;;;;;;7.95;1.38;;;20.40;83.70;;;;;;6218343;23;20096;-78
2021/06/21 05:35:36;;;;;;;6.90;1.75;;;20.50;83.50;;;;;;6219316;23;20024;-79
2021/06/21 05:38:04;;;;;;;8.02;1.55;;;20.40;82.60;;;;;;6219229;23;20016;-79
2021/06/21 05:40:39;;;;;;;5.40;1.30;;;20.20;83.40;;;;;;6217971;23;20232;-79
2021/06/21 05:43:06;;;;;;;3.37;1.00;;;20.30;84.00;;;;;;6219384;23;20349;-79
2021/06/21 05:45:34;;;;;;;12.00;2.35;;;20.10;81.60;;;;;;6218360;23;20791;-78
2021/06/21 05:48:01;;;;;;;3.28;1.13;;;20.10;81.30;;;;;;6218901;23;20082;-81
2021/06/21 05:50:31;;;;;;;4.18;0.98;;;20.10;81.30;;;;;;6213224;23;20285;-80
2021/06/21 05:52:58;;;;;;;7.22;1.40;;;20.10;80.40;;;;;;6219764;23;20208;-82
2021/06/21 05:55:27;;;;;;;7.22;1.10;;;20.10;79.90;;;;;;6217499;23;20017;-80
2021/06/21 05:57:57;;;;;;;10.77;1.25;;;20.10;80.30;;;;;;6220036;23;20020;-81
2021/06/21 06:00:25;;;;;;;3.97;0.75;;;20.20;79.10;;;;;;6215481;23;20024;-80
2021/06/21 06:02:52;;;;;;;3.75;1.23;;;20.20;78.50;;;;;;6219683;23;20036;-81
2021/06/21 06:05:20;;;;;;;6.07;1.02;;;20.20;79.70;;;;;;6219624;23;20020;-81
2021/06/21 06:07:48;;;;;;;8.25;1.27;;;20.20;78.40;;;;;;6219372;23;20024;-80
2021/06/21 06:10:16;;;;;;;3.88;1.00;;;20.10;78.90;;;;;;6216677;23;20220;-80
2021/06/21 06:12:44;;;;;;;6.10;1.75;;;20.00;79.30;;;;;;6220808;23;20271;-80
2021/06/21 06:15:16;;;;;;;5.40;1.35;;;19.90;79.60;;;;;;6221966;23;20065;-80
2021/06/21 06:17:43;;;;;;;2.60;0.65;;;20.00;79.30;;;;;;6223222;23;20028;-80
2021/06/21 06:20:12;;;;;;;4.50;0.98;;;20.10;79.20;;;;;;6222037;23;20185;-80
2021/06/21 06:22:41;;;;;;;4.18;1.38;;;20.30;79.40;;;;;;6216887;23;20035;-80
2021/06/21 06:25:10;;;;;;;5.95;1.10;;;20.10;79.30;;;;;;6219675;23;20020;-79
2021/06/21 06:27:38;;;;;;;4.53;1.02;;;20.20;78.40;;;;;;6191915;23;20028;-80
2021/06/21 06:30:08;;;;;;;2.88;0.90;;;20.20;78.60;;;;;;6216480;23;20035;-80
2021/06/21 06:32:38;;;;;;;2.95;1.13;;;20.40;77.90;;;;;;6219396;23;20024;-80
2021/06/21 06:35:06;;;;;;;5.28;1.55;;;20.30;77.20;;;;;;6219809;23;20018;-81
2021/06/21 06:37:34;;;;;;;7.10;0.90;;;20.50;77.80;;;;;;6218672;23;20016;-80
2021/06/21 06:40:04;;;;;;;2.58;1.10;;;20.70;77.00;;;;;;6220731;23;20051;-81
2021/06/21 06:42:32;;;;;;;5.40;1.40;;;20.60;77.10;;;;;;6244614;23;20017;-80
2021/06/21 06:44:59;;;;;;;6.35;1.38;;;20.80;76.70;;;;;;6218603;23;20463;-79
2021/06/21 06:47:26;;;;;;;7.85;1.42;;;20.70;76.10;;;;;;6219065;23;20076;-79
2021/06/21 06:49:55;;;;;;;5.10;1.02;;;20.60;75.70;;;;;;6220944;23;20024;-80
2021/06/21 06:52:24;;;;;;;6.57;1.10;;;20.60;75.90;;;;;;6216236;23;20020;-79
2021/06/21 06:57:33;;;;;;;3.80;1.13;;;20.70;74.80;;;;;;6216803;23;20032;-80
2021/06/21 07:00:01;;;;;;;3.50;1.27;;;20.50;74.90;;;;;;6217990;23;20016;-80
2021/06/21 07:02:30;;;;;;;4.40;1.00;;;20.40;75.30;;;;;;6214652;23;20035;-80
2021/06/21 07:05:00;;;;;;;4.30;0.90;;;20.30;75.50;;;;;;6217443;23;20309;-79
2021/06/21 07:07:33;;;;;;;1.90;0.75;;;20.50;75.70;;;;;;6216896;23;20071;-79
2021/06/21 07:10:00;;;;;;;2.58;1.15;;;20.50;75.20;;;;;;6218273;23;20306;-80
2021/06/21 07:12:34;;;;;;;3.58;0.73;;;20.60;75.20;;;;;;6217277;23;20284;-80
2021/06/21 07:15:02;;;;;;;2.97;1.08;;;20.60;75.10;;;;;;6220056;23;20032;-79
2021/06/21 07:17:30;;;;;;;3.28;0.82;;;20.50;75.90;;;;;;6221204;23;20017;-80
2021/06/21 07:19:59;;;;;;;4.35;0.80;;;20.50;76.50;;;;;;6215269;23;20028;-78
2021/06/21 07:22:26;;;;;;;4.35;1.45;;;20.60;76.20;;;;;;6216514;23;20035;-80
2021/06/21 07:24:54;;;;;;;3.42;0.70;;;20.50;75.70;;;;;;6217272;23;20024;-80
2021/06/21 07:27:22;;;;;;;4.47;0.88;;;20.20;76.70;;;;;;6218539;23;20039;-80
2021/06/21 07:29:49;;;;;;;5.68;1.05;;;20.70;75.90;;;;;;6220385;23;20343;-81
2021/06/21 07:32:16;;;;;;;9.23;1.30;;;20.80;74.50;;;;;;6218737;23;20028;-79
2021/06/21 07:34:44;;;;;;;5.50;1.27;;;20.90;73.70;;;;;;6215473;23;20036;-80
2021/06/21 07:37:13;;;;;;;5.05;0.95;;;20.60;74.60;;;;;;6240736;23;20024;-80
2021/06/21 07:39:40;;;;;;;5.37;1.83;;;20.60;75.00;;;;;;6217315;23;20252;-80
2021/06/21 07:42:08;;;;;;;9.07;1.98;;;20.80;74.60;;;;;;6217496;23;20036;-79
2021/06/21 07:44:35;;;;;;;4.30;1.20;;;21.00;73.90;;;;;;6216057;23;20083;-80
2021/06/21 07:47:03;;;;;;;7.32;1.90;;;21.30;74.00;;;;;;6242467;23;20016;-80
2021/06/21 07:49:36;;;;;;;5.68;1.67;;;21.30;73.10;;;;;;6215992;23;20035;-79
2021/06/21 07:52:04;;;;;;;3.45;1.30;;;21.60;73.20;;;;;;6213991;23;20047;-79
2021/06/21 07:54:33;;;;;;;6.88;1.30;;;21.70;71.70;;;;;;6241072;23;20028;-79
2021/06/21 07:57:00;;;;;;;4.85;1.85;;;21.50;72.20;;;;;;6217325;23;20031;-79
2021/06/21 07:59:31;;;;;;;5.75;1.20;;;21.50;72.10;;;;;;6216551;23;20455;-79
2021/06/21 08:01:59;;;;;;;5.78;1.52;;;21.70;72.60;;;;;;6210692;23;20029;-79
2021/06/21 08:04:26;;;;;;;8.75;1.85;;;21.80;71.50;;;;;;6220668;23;20095;-79
2021/06/21 08:06:54;;;;;;;7.78;1.45;;;22.00;70.60;;;;;;6216013;23;20365;-79
2021/06/21 08:09:22;;;;;;;6.15;1.30;;;22.10;70.30;;;;;;6219532;23;20029;-77
2021/06/21 08:11:51;;;;;;;5.50;1.27;;;22.10;69.90;;;;;;6218579;23;20024;-79
2021/06/21 08:14:18;;;;;;;4.43;1.30;;;22.00;69.50;;;;;;6215238;23;20324;-80
2021/06/21 08:16:46;;;;;;;3.53;1.20;;;21.70;70.20;;;;;;6220726;23;20079;-78
2021/06/21 08:19:13;;;;;;;2.38;0.95;;;21.60;71.40;;;;;;6220603;23;20331;-78
2021/06/21 08:21:43;;;;;;;4.00;1.33;;;21.60;71.20;;;;;;6219939;23;20080;-79
2021/06/21 08:24:11;;;;;;;4.75;1.50;;;21.90;70.50;;;;;;6221313;23;20087;-79
2021/06/21 08:26:38;;;;;;;4.18;1.50;;;22.20;68.80;;;;;;6219378;23;20079;-79
2021/06/21 08:29:07;;;;;;;5.43;1.10;;;22.50;66.30;;;;;;6218836;23;20020;-80
2021/06/21 08:31:35;;;;;;;6.10;1.70;;;22.60;66.60;;;;;;6222892;23;20044;-80
2021/06/21 08:34:02;;;;;;;5.40;1.17;;;22.60;65.00;;;;;;6220060;23;20224;-79
2021/06/21 08:36:30;;;;;;;10.48;1.83;;;22.60;65.50;;;;;;6218312;23;20320;-80
2021/06/21 08:38:58;;;;;;;6.05;1.45;;;23.00;65.60;;;;;;6216834;23;20075;-78
2021/06/21 08:41:25;;;;;;;3.50;1.35;;;23.00;65.50;;;;;;6218377;23;20074;-78
2021/06/21 08:43:52;;;;;;;6.28;1.40;;;23.00;64.50;;;;;;6218465;23;20027;-78
2021/06/21 08:46:21;;;;;;;4.47;1.73;;;23.10;65.10;;;;;;6220546;23;20012;-79
2021/06/21 08:48:49;;;;;;;2.53;1.08;;;23.00;64.50;;;;;;6215892;23;20312;-79
2021/06/21 08:51:17;;;;;;;5.43;1.20;;;23.00;65.20;;;;;;6216965;23;20205;-78
2021/06/21 08:53:45;;;;;;;3.80;1.30;;;23.20;63.70;;;;;;6218350;23;20024;-79
2021/06/21 08:56:12;;;;;;;3.72;1.13;;;23.40;63.10;;;;;;6218020;23;20024;-80
2021/06/21 08:58:40;;;;;;;2.67;1.33;;;23.20;61.90;;;;;;6218652;23;20029;-78
2021/06/21 09:01:08;;;;;;;3.95;1.10;;;23.00;62.30;;;;;;6215574;23;20025;-79
2021/06/21 09:03:37;;;;;;;2.40;1.08;;;23.00;62.80;;;;;;6218675;23;20062;-79
2021/06/21 09:06:18;;;;;;;3.87;1.30;;;23.30;61.80;;;;;;6248624;23;20205;-79
2021/06/21 09:08:57;;;;;;;2.17;1.52;;;23.70;62.10;;;;;;6220854;23;20028;-79
2021/06/21 09:11:54;;;;;;;5.43;1.08;;;23.60;60.80;;;;;;6220585;23;20073;-79
2021/06/21 09:14:32;;;;;;;2.38;1.05;;;23.70;60.10;;;;;;6218652;23;20029;-79
2021/06/21 09:17:02;;;;;;;4.15;1.40;;;24.00;60.60;;;;;;6220158;23;20020;-78
2021/06/21 09:19:31;;;;;;;1.90;1.00;;;23.90;60.50;;;;;;6219064;23;20021;-81
2021/06/21 09:21:58;;;;;;;4.65;1.13;;;23.90;60.50;;;;;;6216304;23;20032;-79
2021/06/21 09:24:27;;;;;;;2.30;1.17;;;23.80;61.30;;;;;;6217124;23;20020;-79
2021/06/21 09:26:57;;;;;;;2.92;0.88;;;23.80;60.60;;;;;;6220554;23;20298;-78
2021/06/21 09:29:36;;;;;;;5.57;1.30;;;23.50;60.60;;;;;;6220849;23;20185;-79
2021/06/21 09:32:05;;;;;;;5.63;1.20;;;23.60;60.70;;;;;;6219951;23;20016;-78
2021/06/21 09:34:45;;;;;;;2.63;1.15;;;23.80;60.70;;;;;;6223096;23;20239;-78
2021/06/21 09:37:14;;;;;;;1.60;1.05;;;23.60;60.90;;;;;;6216798;23;20255;-79
2021/06/21 09:39:44;;;;;;;2.05;0.80;;;23.70;61.50;;;;;;6220396;23;20359;-77
2021/06/21 09:42:14;;;;;;;5.90;1.20;;;23.60;61.20;;;;;;6223146;23;20032;-79
2021/06/21 09:44:43;;;;;;;;;;;23.60;61.00;;;;;;6221268;23;20027;-79
2021/06/21 09:47:27;;;;;;;5.03;1.20;;;23.40;61.30;;;;;;6216344;23;19972;-79
2021/06/21 09:50:10;;;;;;;3.60;1.55;;;23.30;61.70;;;;;;6220433;23;20170;-79
2021/06/21 09:52:42;;;;;;;3.42;1.13;;;23.30;62.40;;;;;;6219909;23;20072;-79
2021/06/21 09:55:16;;;;;;;4.03;1.20;;;23.20;63.00;;;;;;6245554;23;20036;-79
2021/06/21 09:57:45;;;;;;;4.13;1.40;;;23.00;62.50;;;;;;6220373;23;20307;-79
2021/06/21 10:00:14;;;;;;;3.80;1.05;;;23.00;63.10;;;;;;6215901;23;20108;-79
2021/06/21 10:02:42;;;;;;;6.00;1.55;;;23.30;62.50;;;;;;6221642;23;20073;-78
2021/06/21 10:05:23;;;;;;;2.53;1.15;;;23.60;62.00;;;;;;6218430;23;20044;-79
2021/06/21 10:07:50;;;;;;;3.33;1.20;;;23.90;59.40;;;;;;6220005;23;20345;-80
2021/06/21 10:10:21;;;;;;;3.25;1.20;;;24.20;59.30;;;;;;6222499;23;20025;-79
2021/06/21 10:12:51;;;;;;;5.95;1.27;;;24.60;58.20;;;;;;6222150;23;20213;-79
2021/06/21 10:15:19;;;;;;;3.88;1.50;;;25.00;57.40;;;;;;6220614;23;20020;-80
2021/06/21 10:17:46;;;;;;;7.07;1.30;;;25.10;56.00;;;;;;6223457;23;20271;-80
2021/06/21 10:20:14;;;;;;;5.45;1.10;;;25.10;56.70;;;;;;6221445;23;20028;-81
2021/06/21 10:22:45;;;;;;;2.78;1.17;;;25.50;55.50;;;;;;6223781;23;20075;-82
2021/06/21 10:25:13;;;;;;;4.25;1.02;;;25.40;55.30;;;;;;6223651;23;20024;-80
2021/06/21 10:27:42;;;;;;;5.30;1.20;;;26.10;54.90;;;;;;6224348;23;20020;-80
2021/06/21 10:30:13;;;;;;;6.32;1.40;;;26.30;53.10;;;;;;6224329;23;20020;-81
2021/06/21 10:32:42;;;;;;;2.20;1.00;;;26.10;53.90;;;;;;6220838;23;20064;-81
2021/06/21 10:35:12;;;;;;;3.30;0.90;;;25.60;54.80;;;;;;6219911;23;20024;-78
2021/06/21 10:37:54;;;;;;;1.75;1.20;;;25.60;55.10;;;;;;6221771;23;20235;-80
2021/06/21 10:40:23;;;;;;;4.05;1.40;;;26.70;52.40;;;;;;6222989;23;20020;-81
2021/06/21 10:42:50;;;;;;;3.25;1.40;;;27.10;52.40;;;;;;6226428;23;20213;-80
2021/06/21 10:45:20;;;;;;;2.97;1.10;;;26.30;52.50;;;;;;6222315;23;20231;-81
2021/06/21 10:47:50;;;;;;;3.78;1.30;;;25.70;55.30;;;;;;6225025;23;20024;-81
2021/06/21 10:50:26;;;;;;;2.67;0.90;;;26.50;52.30;;;;;;6248784;23;20308;-81
2021/06/21 10:53:02;;;;;;;2.58;0.85;;;27.20;50.50;;;;;;6222551;23;20024;-80
2021/06/21 10:55:41;;;;;;;7.70;1.30;;;27.30;50.90;;;;;;6226009;23;20299;-81
2021/06/21 10:58:26;;;;;;;3.05;1.00;;;26.40;51.70;;;;;;6224981;23;20021;-81
2021/06/21 11:00:56;;;;;;;5.82;1.17;;;26.40;51.20;;;;;;6218275;23;20036;-80
2021/06/21 11:03:37;;;;;;;3.72;0.63;;;26.10;51.90;;;;;;6224972;23;20212;-80
2021/06/21 11:06:09;;;;;;;1.45;0.90;;;26.80;50.70;;;;;;6224961;23;20216;-80
2021/06/21 11:08:46;;;;;;;3.33;1.20;;;25.80;52.50;;;;;;6224487;23;20021;-80
2021/06/21 11:11:45;;;;;;;2.22;0.90;;;27.50;48.80;;;;;;6220802;23;20229;-80
2021/06/21 11:14:14;;;;;;;3.37;1.23;;;28.20;46.90;;;;;;6217286;23;20095;-79
2021/06/21 11:16:42;;;;;;;1.35;0.80;;;27.30;49.70;;;;;;6219233;23;20025;-79
2021/06/21 11:19:54;;;;;;;3.33;1.15;;;26.40;51.20;;;;;;6226770;23;20243;-79
2021/06/21 11:22:41;;;;;;;1.10;0.70;;;26.30;51.70;;;;;;6255281;23;20036;-82
2021/06/21 11:25:20;;;;;;;5.50;1.00;;;28.80;46.30;;;;;;6220974;23;20115;-81
2021/06/21 11:27:51;;;;;;;;;;;29.60;43.80;;;;;;6245564;23;20028;-80
2021/06/21 11:30:27;;;;;;;2.63;0.77;;;27.70;46.00;;;;;;6247524;23;19930;-80
2021/06/21 11:32:58;;;;;;;4.15;1.10;;;26.30;49.60;;;;;;6224884;23;20024;-81
2021/06/21 11:35:53;;;;;;;1.88;0.93;;;26.20;50.80;;;;;;6223979;23;20059;-80
2021/06/21 11:38:31;;;;;;;4.68;1.00;;;26.60;49.20;;;;;;6222172;23;20025;-79
2021/06/21 11:41:19;;;;;;;1.25;0.80;;;26.60;50.00;;;;;;6224566;23;20020;-78
2021/06/21 11:43:54;;;;;;;1.77;0.95;;;26.60;48.80;;;;;;6224377;23;20020;-80
2021/06/21 11:46:44;;;;;;;1.50;0.80;;;28.70;44.50;;;;;;6247925;23;20027;-79
2021/06/21 11:49:13;;;;;;;1.70;0.85;;;30.60;42.00;;;;;;6218435;23;20331;-80
2021/06/21 11:51:53;;;;;;;5.47;1.08;;;32.10;37.40;;;;;;6243058;23;20030;-80
2021/06/21 11:54:21;;;;;;;1.73;0.90;;;30.00;40.90;;;;;;6219516;23;20017;-78
2021/06/21 11:56:52;;;;;;;2.07;0.90;;;29.70;41.80;;;;;;6213619;23;20032;-79
2021/06/21 11:59:36;;;;;;;2.22;0.70;;;32.00;39.50;;;;;;6221082;23;20507;-79
2021/06/21 12:02:06;;;;;;;2.72;0.77;;;32.10;37.00;;;;;;6218128;23;20316;-79
2021/06/21 12:04:34;;;;;;;1.85;0.77;;;33.40;35.90;;;;;;6223922;23;20347;-79
2021/06/21 12:07:01;;;;;;;4.47;1.20;;;32.10;36.80;;;;;;6247310;23;20562;-79
2021/06/21 12:09:31;;;;;;;5.80;0.80;;;32.90;36.10;;;;;;6223500;23;20030;-80
2021/06/21 12:12:00;;;;;;;2.55;0.80;;;31.80;37.30;;;;;;6246304;23;20021;-77
2021/06/21 12:14:28;;;;;;;3.03;1.05;;;30.40;39.80;;;;;;6222558;23;20024;-79
2021/06/21 12:17:05;;;;;;;5.57;0.90;;;28.90;42.60;;;;;;6220939;23;20047;-80
2021/06/21 12:19:33;;;;;;;2.72;0.85;;;28.30;43.90;;;;;;6223318;23;20020;-80
2021/06/21 12:22:02;;;;;;;2.83;0.88;;;27.60;45.10;;;;;;6223265;23;20040;-80
2021/06/21 12:24:30;;;;;;;;;;;27.00;46.20;;;;;;6227200;23;20020;-79
2021/06/21 12:27:00;;;;;;;3.65;1.30;;;27.10;46.90;;;;;;6226609;23;20135;-82
2021/06/21 12:29:37;;;;;;;1.65;0.80;;;26.60;47.70;;;;;;6224751;23;20193;-79
2021/06/21 12:32:08;;;;;;;3.50;1.10;;;28.50;43.60;;;;;;6224142;23;20043;-80
2021/06/21 12:35:00;;;;;;;6.05;1.45;;;29.30;42.70;;;;;;6225762;23;20035;-80
2021/06/21 12:37:38;;;;;;;2.38;1.00;;;28.50;44.10;;;;;;6225857;23;20017;-80
2021/06/21 12:40:14;;;;;;;2.80;1.08;;;28.40;44.70;;;;;;6227399;23;20020;-79
2021/06/21 12:42:43;;;;;;;3.60;1.00;;;28.50;45.10;;;;;;6224044;23;20028;-80
2021/06/21 12:45:13;;;;;;;2.80;0.97;;;28.10;44.40;;;;;;6226987;23;20024;-79
2021/06/21 12:47:50;;;;;;;3.28;0.98;;;27.50;45.90;;;;;;6224989;23;20020;-80
2021/06/21 12:50:20;;;;;;;2.53;1.02;;;27.60;45.70;;;;;;6225410;23;20020;-80
2021/06/21 12:52:49;;;;;;;4.15;0.95;;;27.10;47.20;;;;;;6227808;23;20036;-80
2021/06/21 12:55:18;;;;;;;5.38;1.30;;;27.30;47.20;;;;;;6226920;23;20036;-78
2021/06/21 12:57:51;;;;;;;2.00;0.88;;;27.20;47.60;;;;;;6223151;23;20040;-79
2021/06/21 13:00:36;;;;;;;3.67;0.90;;;29.20;44.00;;;;;;6216991;23;20041;-80
2021/06/21 13:03:13;;;;;;;2.08;1.00;;;30.50;40.30;;;;;;6219663;23;20027;-79
2021/06/21 13:05:42;;;;;;;3.63;0.90;;;32.60;37.30;;;;;;6218524;23;20056;-76
2021/06/21 13:08:10;;;;;;;4.82;1.25;;;32.90;35.50;;;;;;6221138;23;20017;-78